Time;durP1;ratioP1;P1;durP2;ratioP2;P2;SDS_P1;SDS_P2;PMS_P1;PMS_P2;Temp;Humidity;BMP_temperature;BMP_pressure;BME280_temperature;BME280_humidity;BME280_pressure;Samples;Min_cycle;Max_cycle;Signal;HPM_P1;HPM_P2
2020/12/20 00:00:16;;;;;;;8.60;7.43;;;5.90;86.30;;;;;;5077003;28;20474;-71
2020/12/20 00:02:52;;;;;;;12.80;9.80;;;5.90;86.60;;;;;;5076989;28;20328;-71
2020/12/20 00:05:30;;;;;;;10.55;8.15;;;5.90;87.00;;;;;;5059146;28;20040;-71
2020/12/20 00:07:55;;;;;;;8.70;7.35;;;5.90;86.70;;;;;;5077144;28;20024;-71
2020/12/20 00:10:27;;;;;;;11.85;9.13;;;5.90;87.00;;;;;;5076881;28;20420;-71
2020/12/20 00:12:56;;;;;;;11.00;9.50;;;5.90;87.10;;;;;;5076570;28;20026;-71
2020/12/20 00:15:25;;;;;;;10.43;8.50;;;5.90;87.10;;;;;;5075180;28;20037;-71
2020/12/20 00:17:51;;;;;;;12.13;9.00;;;6.00;87.00;;;;;;5076785;28;20123;-71
2020/12/20 00:20:25;;;;;;;10.70;9.02;;;6.00;86.90;;;;;;5076767;28;20428;-71
2020/12/20 00:22:50;;;;;;;14.40;10.15;;;6.00;86.90;;;;;;5076497;28;20037;-71
2020/12/20 00:25:19;;;;;;;12.75;10.27;;;6.00;86.80;;;;;;5076620;28;20036;-71
2020/12/20 00:27:45;;;;;;;16.30;11.93;;;6.00;86.70;;;;;;5076704;28;20036;-71
2020/12/20 00:30:10;;;;;;;16.75;12.90;;;6.00;86.90;;;;;;5076757;28;20316;-71
2020/12/20 00:32:36;;;;;;;14.18;11.30;;;6.00;87.30;;;;;;5076716;28;20028;-71
2020/12/20 00:35:05;;;;;;;12.63;9.18;;;6.10;87.50;;;;;;5076866;28;20082;-71
2020/12/20 00:37:31;;;;;;;12.05;8.73;;;6.10;87.50;;;;;;5076615;28;20036;-71
2020/12/20 00:39:57;;;;;;;11.75;9.25;;;6.10;86.90;;;;;;5076766;28;20031;-71
2020/12/20 00:42:23;;;;;;;12.50;9.45;;;6.10;86.90;;;;;;5076772;28;20032;-71
2020/12/20 00:44:48;;;;;;;17.15;10.43;;;6.20;86.70;;;;;;5076436;28;20029;-71
2020/12/20 00:47:14;;;;;;;13.13;10.40;;;6.20;86.40;;;;;;5058810;28;20025;-71
2020/12/20 00:49:40;;;;;;;12.95;10.05;;;6.30;86.40;;;;;;5076738;28;20028;-71
2020/12/20 00:52:07;;;;;;;14.75;11.68;;;6.30;86.20;;;;;;5076486;28;20032;-71
2020/12/20 00:54:34;;;;;;;15.73;11.85;;;6.30;86.40;;;;;;5076416;28;20408;-71
2020/12/20 00:57:00;;;;;;;15.23;10.77;;;6.30;86.70;;;;;;5076346;28;20033;-71
2020/12/20 00:59:25;;;;;;;15.80;12.38;;;6.20;86.90;;;;;;5076376;28;20021;-71
2020/12/20 01:01:51;;;;;;;17.67;13.32;;;6.20;87.30;;;;;;5058665;28;20119;-71
2020/12/20 01:04:17;;;;;;;18.10;12.45;;;6.20;87.30;;;;;;5076305;28;20040;-71
2020/12/20 01:06:46;;;;;;;22.67;16.02;;;6.20;87.80;;;;;;5076272;28;20387;-71
2020/12/20 01:09:16;;;;;;;19.30;14.85;;;6.20;86.70;;;;;;5076343;28;20028;-71
2020/12/20 01:11:42;;;;;;;20.23;15.98;;;6.20;87.00;;;;;;5076575;28;20312;-71
2020/12/20 01:14:08;;;;;;;22.88;15.73;;;6.10;87.50;;;;;;5076237;28;20095;-71
2020/12/20 01:16:33;;;;;;;19.00;15.30;;;6.10;87.60;;;;;;5076234;28;20045;-71
2020/12/20 01:18:59;;;;;;;17.35;13.05;;;6.10;87.50;;;;;;5076264;28;20059;-71
2020/12/20 01:21:27;;;;;;;20.95;14.60;;;6.00;87.50;;;;;;5076477;28;20063;-71
2020/12/20 01:24:15;;;;;;;22.42;15.80;;;6.00;87.70;;;;;;5076305;28;20119;-71
2020/12/20 01:26:41;;;;;;;17.65;13.27;;;6.00;87.40;;;;;;5077931;28;20090;-71
2020/12/20 01:29:07;;;;;;;18.00;13.65;;;5.90;87.30;;;;;;5079727;28;20371;-71
2020/12/20 01:31:32;;;;;;;14.40;12.07;;;5.90;87.00;;;;;;5079863;28;20430;-71
2020/12/20 01:33:59;;;;;;;16.00;12.40;;;5.80;87.00;;;;;;5079813;28;20043;-71
2020/12/20 01:36:25;;;;;;;16.88;12.35;;;5.70;87.60;;;;;;5062084;28;20360;-71
2020/12/20 01:38:51;;;;;;;17.23;12.23;;;5.60;87.70;;;;;;5079769;28;20158;-71
2020/12/20 01:41:19;;;;;;;15.23;12.02;;;5.60;87.40;;;;;;5080017;28;20028;-71
2020/12/20 01:43:57;;;;;;;14.80;11.50;;;5.50;87.30;;;;;;5079885;28;20062;-71
2020/12/20 01:46:25;;;;;;;12.57;10.18;;;5.50;87.60;;;;;;5079474;28;20029;-71
2020/12/20 01:48:56;;;;;;;14.07;10.50;;;5.30;87.70;;;;;;5079577;28;20028;-71
2020/12/20 01:51:22;;;;;;;11.23;8.85;;;5.30;88.00;;;;;;5079770;28;20305;-71
2020/12/20 01:53:50;;;;;;;9.18;7.38;;;5.30;88.20;;;;;;5079657;28;20036;-71
2020/12/20 01:56:17;;;;;;;7.82;6.40;;;5.40;87.70;;;;;;5079426;28;20470;-71
2020/12/20 01:58:48;;;;;;;10.80;7.40;;;5.40;87.10;;;;;;5079638;28;20315;-71
2020/12/20 02:01:14;;;;;;;7.70;6.18;;;5.40;86.20;;;;;;5079358;28;20119;-71
2020/12/20 02:03:39;;;;;;;7.65;6.38;;;5.40;86.10;;;;;;5079292;28;20052;-71
2020/12/20 02:06:05;;;;;;;9.45;6.35;;;5.50;85.80;;;;;;5079107;28;20028;-71
2020/12/20 02:08:32;;;;;;;7.15;5.40;;;5.50;86.00;;;;;;5061495;28;20024;-71
2020/12/20 02:11:08;;;;;;;8.85;6.80;;;5.40;84.90;;;;;;5061447;28;20316;-71
2020/12/20 02:13:34;;;;;;;;;;;5.30;85.80;;;;;;5079465;28;20116;-71
2020/12/20 02:16:01;;;;;;;9.77;8.07;;;5.30;87.10;;;;;;5079045;28;19911;-71
2020/12/20 02:18:29;;;;;;;9.65;7.03;;;5.20;86.90;;;;;;5079017;28;20053;-71
2020/12/20 02:20:55;;;;;;;9.70;6.40;;;5.10;86.40;;;;;;5078732;28;20028;-71
2020/12/20 02:23:21;;;;;;;10.60;6.95;;;5.10;86.10;;;;;;5079002;28;20153;-71
2020/12/20 02:25:51;;;;;;;10.98;7.05;;;5.00;86.80;;;;;;5079367;28;20032;-71
2020/12/20 02:28:17;;;;;;;7.65;6.43;;;4.90;86.90;;;;;;5078568;28;20040;-71
2020/12/20 02:30:43;;;;;;;8.45;6.10;;;4.90;86.50;;;;;;5078848;28;20375;-71
2020/12/20 02:33:08;;;;;;;11.05;6.05;;;4.90;86.10;;;;;;5078874;28;20071;-71
2020/12/20 02:35:37;;;;;;;9.65;6.85;;;4.80;86.50;;;;;;5078645;28;20024;-71
2020/12/20 02:38:13;;;;;;;10.20;7.70;;;4.70;87.10;;;;;;5078146;28;20435;-71
2020/12/20 02:40:45;;;;;;;9.30;7.22;;;4.50;87.70;;;;;;5078637;28;20024;-71
2020/12/20 02:43:10;;;;;;;11.82;9.70;;;4.40;88.40;;;;;;5078606;28;20082;-71
2020/12/20 02:45:36;;;;;;;10.70;8.18;;;4.40;89.10;;;;;;5078334;28;20103;-71
2020/12/20 02:48:02;;;;;;;11.70;8.52;;;4.40;89.30;;;;;;5078425;28;20104;-71
2020/12/20 02:50:27;;;;;;;10.00;8.10;;;4.30;89.10;;;;;;5078432;28;20017;-71
2020/12/20 02:52:53;;;;;;;14.40;10.70;;;4.30;89.20;;;;;;5078529;28;20046;-71
2020/12/20 02:55:18;;;;;;;14.65;10.40;;;4.30;89.40;;;;;;5078267;28;20428;-71
2020/12/20 02:57:46;;;;;;;14.68;10.05;;;4.20;89.90;;;;;;5078269;28;20361;-71
2020/12/20 03:00:12;;;;;;;14.15;10.13;;;4.10;90.40;;;;;;5078446;28;20028;-71
2020/12/20 03:02:40;;;;;;;10.45;8.85;;;4.10;90.20;;;;;;5078079;28;20028;-71
2020/12/20 03:05:14;;;;;;;12.05;9.27;;;4.10;90.40;;;;;;5078015;28;20025;-71
2020/12/20 03:07:43;;;;;;;12.35;9.27;;;4.10;90.80;;;;;;5078025;28;20025;-71
2020/12/20 03:10:09;;;;;;;15.45;11.32;;;4.10;91.00;;;;;;5060250;28;20469;-71
2020/12/20 03:12:34;;;;;;;11.38;9.05;;;4.20;91.40;;;;;;5077950;28;20103;-71
2020/12/20 03:15:04;;;;;;;15.02;7.45;;;4.20;91.40;;;;;;5077837;28;20409;-71
2020/12/20 03:17:30;;;;;;;8.93;6.40;;;4.30;91.30;;;;;;5077813;28;20024;-71
2020/12/20 03:19:56;;;;;;;8.88;7.32;;;4.40;91.00;;;;;;5077794;28;20024;-71
2020/12/20 03:22:21;;;;;;;8.68;6.63;;;4.40;90.90;;;;;;5077890;28;20032;-71
2020/12/20 03:24:47;;;;;;;6.97;6.07;;;4.40;90.90;;;;;;5078045;28;20043;-71
2020/12/20 03:27:12;;;;;;;8.70;6.68;;;4.40;90.70;;;;;;5077463;28;20039;-71
2020/12/20 03:29:38;;;;;;;10.88;7.32;;;4.40;91.00;;;;;;5077646;28;20420;-71
2020/12/20 03:32:04;;;;;;;11.82;9.10;;;4.40;90.80;;;;;;5077835;28;20493;-71
2020/12/20 03:34:29;;;;;;;11.45;9.52;;;4.40;91.10;;;;;;5077401;28;20033;-71
2020/12/20 03:36:58;;;;;;;12.02;9.10;;;4.40;91.30;;;;;;5077740;28;20052;-71
2020/12/20 03:39:24;;;;;;;12.90;9.40;;;4.40;91.20;;;;;;5077335;28;20056;-71
2020/12/20 03:41:50;;;;;;;11.25;9.23;;;4.40;91.40;;;;;;5077665;28;20157;-71
2020/12/20 03:44:21;;;;;;;23.30;18.38;;;4.40;91.30;;;;;;5077297;28;20121;-71
2020/12/20 03:46:46;;;;;;;25.10;18.10;;;4.40;92.00;;;;;;5059517;28;20367;-71
2020/12/20 03:49:12;;;;;;;24.30;18.70;;;4.40;92.90;;;;;;5075192;28;20051;-71
2020/12/20 03:51:40;;;;;;;16.90;12.98;;;4.50;92.40;;;;;;5077531;28;20103;-71
2020/12/20 03:54:09;;;;;;;15.05;11.52;;;4.50;91.50;;;;;;5077020;28;20636;-71
2020/12/20 03:56:35;;;;;;;12.00;9.88;;;4.50;90.90;;;;;;5059438;28;20056;-71
2020/12/20 03:59:24;;;;;;;8.98;6.70;;;4.50;90.30;;;;;;5077030;28;20063;-71
2020/12/20 04:02:03;;;;;;;7.90;5.88;;;4.50;90.40;;;;;;5077081;28;20031;-71
2020/12/20 04:04:32;;;;;;;5.82;4.38;;;4.50;90.50;;;;;;5077038;28;20103;-71
2020/12/20 04:07:03;;;;;;;9.13;6.10;;;4.70;89.70;;;;;;5076847;28;20044;-71
2020/12/20 04:09:29;;;;;;;8.20;6.70;;;4.80;89.60;;;;;;5077108;28;20035;-71
2020/12/20 04:11:54;;;;;;;8.43;6.72;;;4.80;89.60;;;;;;5077172;28;20021;-71
2020/12/20 04:14:20;;;;;;;11.18;7.00;;;4.90;89.50;;;;;;5076881;28;20035;-71
2020/12/20 04:16:45;;;;;;;8.45;7.10;;;4.90;89.50;;;;;;5076909;28;20379;-71
2020/12/20 04:19:11;;;;;;;8.32;5.55;;;4.90;89.00;;;;;;5076750;28;20427;-71
2020/12/20 04:21:39;;;;;;;10.65;7.78;;;4.90;88.90;;;;;;5076781;28;20119;-71
2020/12/20 04:24:05;;;;;;;10.23;8.48;;;4.90;89.10;;;;;;5058965;28;20029;-71
2020/12/20 04:26:30;;;;;;;7.70;5.88;;;4.90;89.20;;;;;;5076708;28;20051;-71
2020/12/20 04:29:01;;;;;;;9.82;7.53;;;4.90;88.30;;;;;;5076465;28;20048;-71
2020/12/20 04:31:27;;;;;;;13.30;6.95;;;4.90;88.60;;;;;;5076703;28;20021;-71
2020/12/20 04:33:53;;;;;;;11.95;7.88;;;4.80;88.20;;;;;;5076717;28;20020;-71
2020/12/20 04:36:41;;;;;;;9.45;7.78;;;4.80;87.90;;;;;;5076659;28;20097;-71
2020/12/20 04:39:10;;;;;;;11.48;8.75;;;4.70;88.00;;;;;;5061490;28;20041;-71
2020/12/20 04:41:35;;;;;;;14.18;9.25;;;4.70;88.60;;;;;;5076897;28;20028;-71
2020/12/20 04:44:04;;;;;;;8.10;6.78;;;4.70;88.50;;;;;;5058682;28;20040;-71
2020/12/20 04:46:54;;;;;;;9.48;5.32;;;4.60;88.40;;;;;;5076480;28;20025;-71
2020/12/20 04:49:22;;;;;;;16.42;12.05;;;4.70;87.60;;;;;;5076580;28;20020;-71
2020/12/20 04:51:50;;;;;;;21.02;15.57;;;4.60;88.40;;;;;;5058718;28;20404;-71
2020/12/20 04:54:19;;;;;;;9.10;7.32;;;4.70;90.50;;;;;;5076733;28;20154;-71
2020/12/20 04:56:45;;;;;;;11.70;9.60;;;4.70;88.30;;;;;;5075584;28;20351;-71
2020/12/20 04:59:12;;;;;;;24.17;17.00;;;4.70;88.60;;;;;;5076392;28;20043;-71
2020/12/20 05:01:39;;;;;;;20.58;15.52;;;4.70;89.80;;;;;;5062029;28;20021;-71
2020/12/20 05:04:07;;;;;;;18.10;13.10;;;4.80;90.20;;;;;;5080596;28;20028;-71
2020/12/20 05:06:36;;;;;;;20.92;15.45;;;4.90;89.40;;;;;;5080285;28;20024;-71
2020/12/20 05:09:07;;;;;;;20.33;15.65;;;4.90;89.80;;;;;;5080206;28;20305;-71
2020/12/20 05:11:36;;;;;;;18.65;13.45;;;5.00;91.30;;;;;;5080602;28;20040;-71
2020/12/20 05:14:03;;;;;;;14.52;9.70;;;5.10;91.10;;;;;;5080166;28;20039;-71
2020/12/20 05:16:30;;;;;;;13.73;9.82;;;5.10;89.00;;;;;;5080444;28;20366;-71
2020/12/20 05:18:58;;;;;;;11.18;8.07;;;5.10;87.80;;;;;;5080231;28;20104;-71
2020/12/20 05:21:26;;;;;;;7.68;6.15;;;5.00;87.40;;;;;;5080481;28;20081;-71
2020/12/20 05:23:51;;;;;;;5.38;4.65;;;4.90;86.00;;;;;;5079929;28;20063;-71
2020/12/20 05:26:24;;;;;;;7.07;5.80;;;4.80;86.20;;;;;;5079880;28;20056;-71
2020/12/20 05:28:50;;;;;;;13.02;8.75;;;4.70;86.70;;;;;;5079893;28;20105;-71
2020/12/20 05:31:16;;;;;;;11.10;8.45;;;4.60;88.00;;;;;;5079853;28;20103;-71
2020/12/20 05:33:41;;;;;;;7.45;5.88;;;4.70;88.60;;;;;;5078765;28;20028;-71
2020/12/20 05:36:08;;;;;;;6.03;4.30;;;4.70;87.80;;;;;;5079713;28;20040;-71
2020/12/20 05:38:37;;;;;;;7.03;5.22;;;4.80;87.40;;;;;;5079686;28;20483;-71
2020/12/20 05:41:04;;;;;;;7.80;5.50;;;4.80;87.40;;;;;;5080030;28;20094;-71
2020/12/20 05:43:30;;;;;;;10.00;5.97;;;4.80;87.60;;;;;;5079638;28;20020;-71
2020/12/20 05:46:00;;;;;;;11.05;7.05;;;4.80;87.40;;;;;;5079521;28;20133;-71
2020/12/20 05:48:30;;;;;;;38.10;24.27;;;4.70;87.80;;;;;;5079475;28;20028;-71
2020/12/20 05:51:00;;;;;;;28.27;21.75;;;4.70;88.70;;;;;;5079807;28;20027;-71
2020/12/20 05:53:30;;;;;;;27.75;19.77;;;4.60;90.40;;;;;;5079516;28;20078;-71
2020/12/20 05:55:58;;;;;;;11.45;8.68;;;4.60;91.20;;;;;;5079365;28;20020;-71
2020/12/20 05:58:37;;;;;;;9.70;6.25;;;4.50;90.00;;;;;;5079405;28;20032;-71
2020/12/20 06:01:03;;;;;;;15.98;12.52;;;4.50;88.80;;;;;;5079371;28;20017;-71
2020/12/20 06:03:31;;;;;;;23.10;17.30;;;4.50;89.40;;;;;;5079456;28;20116;-71
2020/12/20 06:06:05;;;;;;;29.27;20.63;;;4.50;89.90;;;;;;5079231;28;20074;-71
2020/12/20 06:08:37;;;;;;;32.78;24.08;;;4.50;91.10;;;;;;5061522;28;20306;-71
2020/12/20 06:11:03;;;;;;;29.05;21.88;;;4.40;91.30;;;;;;5079269;28;20035;-71
2020/12/20 06:13:29;;;;;;;40.83;27.73;;;4.40;92.30;;;;;;5060465;28;20424;-71
2020/12/20 06:15:56;;;;;;;36.97;26.85;;;4.40;93.60;;;;;;5079033;28;20017;-71
2020/12/20 06:18:23;;;;;;;37.63;25.67;;;4.40;93.60;;;;;;5078998;28;20085;-71
2020/12/20 06:20:56;;;;;;;28.83;20.65;;;4.50;93.50;;;;;;5079593;28;20040;-71
2020/12/20 06:23:33;;;;;;;5.45;4.30;;;4.50;93.20;;;;;;5079136;28;20025;-71
2020/12/20 06:26:02;;;;;;;5.65;4.63;;;4.50;88.80;;;;;;5078826;28;20036;-71
2020/12/20 06:28:32;;;;;;;11.90;8.70;;;4.50;87.90;;;;;;5078858;28;20029;-71
2020/12/20 06:31:00;;;;;;;8.23;6.57;;;4.40;88.40;;;;;;5061126;28;20030;-71
2020/12/20 06:33:34;;;;;;;6.70;4.80;;;4.60;88.30;;;;;;5078706;28;20024;-71
2020/12/20 06:36:09;;;;;;;15.07;10.82;;;4.70;87.60;;;;;;5078736;28;20435;-71
2020/12/20 06:38:35;;;;;;;18.10;13.70;;;4.70;87.90;;;;;;5078993;28;20039;-71
2020/12/20 06:41:01;;;;;;;17.38;12.52;;;4.70;89.00;;;;;;5078218;28;20040;-71
2020/12/20 06:43:28;;;;;;;9.70;7.38;;;4.80;89.70;;;;;;5078814;28;20025;-71
2020/12/20 06:45:54;;;;;;;12.48;9.73;;;4.90;87.50;;;;;;5078623;28;20033;-71
2020/12/20 06:48:39;;;;;;;10.13;7.38;;;4.90;87.50;;;;;;5078683;28;20025;-71
2020/12/20 06:51:08;;;;;;;5.22;3.30;;;5.10;86.80;;;;;;5078729;28;20348;-71
2020/12/20 06:53:46;;;;;;;8.00;4.53;;;5.20;84.00;;;;;;5078449;28;20040;-71
2020/12/20 06:56:20;;;;;;;4.03;3.20;;;5.40;84.10;;;;;;5078324;28;20107;-71
2020/12/20 06:58:47;;;;;;;3.63;3.03;;;5.50;83.20;;;;;;5078327;28;20025;-71
2020/12/20 07:01:38;;;;;;;4.50;3.00;;;5.50;82.90;;;;;;5078429;28;20447;-71
2020/12/20 07:04:36;;;;;;;4.00;2.80;;;5.60;82.10;;;;;;5060345;28;20032;-71
2020/12/20 07:07:11;;;;;;;3.95;3.08;;;5.70;81.80;;;;;;5060050;28;20074;-71
2020/12/20 07:09:42;;;;;;;6.67;4.20;;;5.70;81.60;;;;;;5078304;28;20024;-71
2020/12/20 07:12:31;;;;;;;6.97;4.38;;;5.80;81.90;;;;;;5078272;28;20029;-71
2020/12/20 07:14:57;;;;;;;5.10;3.25;;;5.80;82.30;;;;;;5077681;28;20021;-71
2020/12/20 07:17:26;;;;;;;7.07;4.63;;;5.90;81.90;;;;;;5077886;28;20404;-71
2020/12/20 07:20:11;;;;;;;6.93;4.97;;;5.90;81.60;;;;;;5078080;28;20031;-71
2020/12/20 07:22:41;;;;;;;10.02;5.90;;;6.00;81.90;;;;;;5078047;28;20318;-71
2020/12/20 07:25:09;;;;;;;8.75;6.20;;;6.10;82.10;;;;;;5078063;28;20024;-71
2020/12/20 07:27:43;;;;;;;8.48;6.55;;;6.20;83.40;;;;;;5077746;28;20432;-71
2020/12/20 07:30:12;;;;;;;10.93;8.20;;;6.20;83.50;;;;;;5077514;28;20049;-71
2020/12/20 07:32:38;;;;;;;11.23;8.30;;;6.30;84.10;;;;;;5077999;28;20028;-71
2020/12/20 07:35:04;;;;;;;11.50;8.63;;;6.40;84.70;;;;;;5077713;28;20027;-71
2020/12/20 07:37:32;;;;;;;13.13;10.80;;;6.50;84.60;;;;;;5077478;28;20478;-71
2020/12/20 07:40:04;;;;;;;10.55;8.98;;;6.60;84.00;;;;;;5077452;28;20044;-71
2020/12/20 07:42:30;;;;;;;14.65;9.43;;;6.80;83.30;;;;;;5077759;28;20037;-71
2020/12/20 07:44:55;;;;;;;9.90;8.10;;;6.80;83.10;;;;;;5059552;28;20031;-71
2020/12/20 07:47:21;;;;;;;7.72;5.97;;;7.00;83.30;;;;;;5077310;28;20028;-71
2020/12/20 07:49:59;;;;;;;10.18;5.93;;;7.10;80.70;;;;;;5077208;28;20027;-71
2020/12/20 07:52:25;;;;;;;5.93;4.25;;;7.20;80.30;;;;;;5076605;28;20064;-71
2020/12/20 07:54:58;;;;;;;6.05;4.82;;;7.30;78.80;;;;;;5077617;28;20043;-71
2020/12/20 07:57:31;;;;;;;8.85;5.63;;;7.50;78.30;;;;;;5077214;28;20301;-71
2020/12/20 08:00:12;;;;;;;10.75;5.70;;;7.50;79.00;;;;;;5076877;28;20048;-71
2020/12/20 08:02:47;;;;;;;6.03;5.18;;;7.60;80.00;;;;;;5059395;28;20111;-71
2020/12/20 08:05:14;;;;;;;5.63;4.97;;;7.60;80.10;;;;;;5077205;28;20086;-71
2020/12/20 08:07:40;;;;;;;6.38;4.97;;;7.60;79.30;;;;;;5077410;28;20343;-71
2020/12/20 08:10:13;;;;;;;8.52;5.60;;;7.60;78.50;;;;;;5076928;28;20066;-71
2020/12/20 08:12:44;;;;;;;8.75;5.65;;;7.60;78.60;;;;;;5077307;28;20054;-71
2020/12/20 08:15:14;;;;;;;7.22;5.95;;;7.60;78.80;;;;;;5077017;28;20082;-71
2020/12/20 08:18:07;;;;;;;9.52;7.43;;;7.70;78.20;;;;;;5077106;28;20028;-71
2020/12/20 08:20:33;;;;;;;9.75;8.27;;;7.70;79.50;;;;;;5076912;28;20028;-71
2020/12/20 08:23:01;;;;;;;10.63;8.13;;;7.70;79.90;;;;;;5076967;28;20024;-71
2020/12/20 08:25:26;;;;;;;11.13;9.27;;;7.80;79.90;;;;;;5076683;28;20033;-71
2020/12/20 08:27:52;;;;;;;13.15;10.30;;;7.80;80.30;;;;;;5076677;28;20033;-71
2020/12/20 08:30:18;;;;;;;11.90;9.70;;;7.80;80.70;;;;;;5076542;28;20041;-71
2020/12/20 08:32:54;;;;;;;12.98;10.45;;;7.80;79.50;;;;;;5077123;28;20351;-71
2020/12/20 08:35:36;;;;;;;14.60;10.93;;;7.90;80.00;;;;;;5076078;28;20024;-71
2020/12/20 08:38:05;;;;;;;14.48;10.60;;;7.90;79.50;;;;;;5076629;28;20038;-71
2020/12/20 08:40:35;;;;;;;14.15;11.85;;;8.00;78.40;;;;;;5074026;28;20081;-71
2020/12/20 08:43:02;;;;;;;15.27;12.00;;;8.10;79.40;;;;;;5058815;28;20036;-71
2020/12/20 08:45:29;;;;;;;10.88;8.93;;;8.10;78.80;;;;;;5076374;28;20500;-71
2020/12/20 08:48:04;;;;;;;14.18;10.73;;;8.20;77.90;;;;;;5076813;28;20025;-71
2020/12/20 08:50:33;;;;;;;14.95;10.45;;;8.30;78.60;;;;;;5076613;28;20048;-71
2020/12/20 08:52:59;;;;;;;12.68;9.70;;;8.50;77.40;;;;;;5076548;28;20033;-71
2020/12/20 08:55:28;;;;;;;10.35;7.45;;;8.70;76.00;;;;;;5076410;28;20055;-71
2020/12/20 08:58:20;;;;;;;9.77;7.35;;;8.80;76.10;;;;;;5076706;28;20029;-71
2020/12/20 09:00:56;;;;;;;8.82;6.47;;;9.10;73.20;;;;;;5072180;28;20453;-71
2020/12/20 09:03:24;;;;;;;9.43;7.28;;;9.20;73.30;;;;;;5075390;28;20447;-71
2020/12/20 09:05:50;;;;;;;11.10;7.43;;;9.40;73.00;;;;;;5076494;28;20342;-71
2020/12/20 09:08:19;;;;;;;8.68;7.35;;;9.40;72.50;;;;;;5076324;28;20096;-71
2020/12/20 09:10:44;;;;;;;11.82;6.78;;;9.40;72.60;;;;;;5076568;28;20020;-72
2020/12/20 09:13:10;;;;;;;8.60;7.15;;;9.30;73.60;;;;;;5076234;28;20447;-71
2020/12/20 09:15:42;;;;;;;9.48;6.63;;;9.30;73.80;;;;;;5076209;28;20081;-71
2020/12/20 09:18:17;;;;;;;11.60;8.25;;;9.20;73.80;;;;;;5076622;28;20483;-71
2020/12/20 09:20:44;;;;;;;11.70;7.68;;;9.10;73.60;;;;;;5076582;28;20098;-72
2020/12/20 09:23:23;;;;;;;12.18;8.50;;;9.10;73.30;;;;;;5076011;28;20032;-72
2020/12/20 09:25:50;;;;;;;12.27;10.10;;;8.90;74.80;;;;;;5076314;28;20097;-71
2020/12/20 09:28:21;;;;;;;9.93;7.63;;;8.70;75.50;;;;;;5075989;28;20080;-72
2020/12/20 09:30:49;;;;;;;10.50;8.10;;;8.50;74.70;;;;;;5076124;28;20031;-71
2020/12/20 09:33:15;;;;;;;9.88;6.90;;;8.40;74.50;;;;;;5076085;28;20429;-71
2020/12/20 09:36:04;;;;;;;10.73;7.38;;;8.50;74.70;;;;;;5076049;28;20028;-71
2020/12/20 09:38:44;;;;;;;10.38;6.78;;;8.70;74.20;;;;;;5076070;28;20035;-72
2020/12/20 09:41:21;;;;;;;11.57;6.90;;;9.10;73.10;;;;;;5076106;28;20048;-72
2020/12/20 09:43:48;;;;;;;8.93;6.65;;;9.60;71.90;;;;;;5076045;28;20320;-72
2020/12/20 09:46:29;;;;;;;10.00;7.38;;;10.20;70.10;;;;;;5075830;28;20119;-72
2020/12/20 09:49:11;;;;;;;9.25;7.28;;;11.00;67.80;;;;;;5079347;28;20024;-70
2020/12/20 09:51:37;;;;;;;9.40;7.80;;;12.00;66.10;;;;;;5079868;28;20078;-71
2020/12/20 09:54:03;;;;;;;10.00;7.93;;;12.90;61.40;;;;;;5079758;28;20028;-70
2020/12/20 09:56:29;;;;;;;9.43;7.55;;;13.30;60.40;;;;;;5079495;28;20420;-70
2020/12/20 09:58:54;;;;;;;10.52;7.82;;;13.20;60.00;;;;;;5079485;28;20067;-72
2020/12/20 10:01:22;;;;;;;9.70;8.15;;;13.60;60.00;;;;;;5079567;28;20073;-71
2020/12/20 10:03:48;;;;;;;11.40;7.85;;;14.30;58.50;;;;;;5079182;28;20024;-71
2020/12/20 10:06:17;;;;;;;10.10;7.80;;;14.60;57.20;;;;;;5078625;28;20435;-70
2020/12/20 10:08:51;;;;;;;7.47;6.10;;;15.10;56.70;;;;;;5083649;28;20111;-70
2020/12/20 10:11:29;;;;;;;8.20;6.50;;;15.60;55.70;;;;;;5097019;28;20365;-71
2020/12/20 10:13:55;;;;;;;7.85;6.85;;;15.90;54.00;;;;;;5099353;28;20027;-71
2020/12/20 10:16:26;;;;;;;8.57;6.70;;;15.70;54.80;;;;;;5099466;28;20103;-71
2020/12/20 10:18:55;;;;;;;8.52;6.85;;;15.90;54.60;;;;;;5099393;28;20327;-70
2020/12/20 10:21:41;;;;;;;7.93;6.55;;;15.90;53.70;;;;;;5099569;28;20100;-70
2020/12/20 10:24:07;;;;;;;8.93;5.95;;;15.90;52.60;;;;;;5099523;28;20032;-70
2020/12/20 10:26:48;;;;;;;7.32;5.97;;;15.80;52.30;;;;;;5099103;28;20051;-71
2020/12/20 10:29:23;;;;;;;6.20;5.60;;;15.70;53.50;;;;;;5098817;28;20040;-70
2020/12/20 10:31:51;;;;;;;6.88;5.28;;;16.00;53.10;;;;;;5098973;28;20025;-70
2020/12/20 10:34:17;;;;;;;6.43;5.00;;;16.40;52.00;;;;;;5098981;28;20400;-70
2020/12/20 10:36:43;;;;;;;7.25;5.30;;;16.40;52.40;;;;;;5099000;28;20030;-70
2020/12/20 10:39:22;;;;;;;;;;;;;;;;;;;;;
2020/12/20 10:41:52;;;;;;;6.03;4.63;;;15.20;53.50;;;;;;5099140;28;20020;-72
2020/12/20 10:44:21;;;;;;;6.15;4.70;;;14.20;56.60;;;;;;5096620;28;20085;-72
2020/12/20 10:46:50;;;;;;;6.97;4.47;;;13.30;58.20;;;;;;5098856;28;20370;-71
2020/12/20 10:49:17;;;;;;;7.55;5.57;;;12.60;59.60;;;;;;5098740;28;20396;-72
2020/12/20 10:51:43;;;;;;;6.03;4.47;;;12.10;61.60;;;;;;5098652;28;20020;-72
2020/12/20 10:54:09;;;;;;;6.28;4.75;;;11.80;61.90;;;;;;5098512;28;20032;-72
2020/12/20 10:56:40;;;;;;;6.00;4.32;;;11.50;63.50;;;;;;5098595;28;20320;-72
2020/12/20 10:59:06;;;;;;;8.85;6.82;;;11.40;63.60;;;;;;5098148;28;20069;-72
2020/12/20 11:01:31;;;;;;;9.43;5.63;;;11.30;63.40;;;;;;5097370;28;20036;-72
2020/12/20 11:03:57;;;;;;;7.53;4.80;;;11.10;64.90;;;;;;5098227;28;20424;-71
2020/12/20 11:06:24;;;;;;;5.32;4.10;;;10.90;65.70;;;;;;5098560;28;20157;-71
2020/12/20 11:08:51;;;;;;;6.22;4.32;;;10.90;65.70;;;;;;5098347;28;20024;-72
2020/12/20 11:11:30;;;;;;;5.25;4.40;;;10.80;65.10;;;;;;5080395;28;20369;-72
2020/12/20 11:14:00;;;;;;;5.47;4.10;;;10.70;64.60;;;;;;5080287;28;20112;-71
2020/12/20 11:16:26;;;;;;;6.53;4.75;;;10.60;65.10;;;;;;5098208;28;20162;-72
2020/12/20 11:18:52;;;;;;;6.95;4.78;;;10.60;65.40;;;;;;5098117;28;20388;-72
2020/12/20 11:21:19;;;;;;;8.30;5.70;;;10.70;64.70;;;;;;5098391;28;20028;-72
2020/12/20 11:23:48;;;;;;;6.65;4.25;;;10.80;65.00;;;;;;5098258;28;20039;-72
2020/12/20 11:26:16;;;;;;;9.25;4.75;;;10.90;65.40;;;;;;5097955;28;20103;-72
2020/12/20 11:28:45;;;;;;;5.95;4.00;;;11.00;64.20;;;;;;5097703;28;20200;-72
2020/12/20 11:31:16;;;;;;;5.68;4.35;;;11.30;65.50;;;;;;5098127;28;20145;-72
2020/12/20 11:33:42;;;;;;;6.90;4.68;;;11.30;62.70;;;;;;5097870;28;20046;-72
2020/12/20 11:36:08;;;;;;;5.72;4.57;;;11.10;65.20;;;;;;5097791;28;20024;-72
2020/12/20 11:39:09;;;;;;;5.90;4.70;;;10.90;66.30;;;;;;5097856;28;20036;-72
2020/12/20 11:41:40;;;;;;;7.70;4.78;;;10.80;66.00;;;;;;5097797;28;20375;-72
2020/12/20 11:44:08;;;;;;;8.20;5.28;;;10.70;66.50;;;;;;5097620;28;20024;-72
2020/12/20 11:46:33;;;;;;;7.72;5.00;;;10.70;66.60;;;;;;5097581;28;20024;-72
2020/12/20 11:49:05;;;;;;;5.72;5.10;;;10.60;65.60;;;;;;5097659;28;20031;-72
2020/12/20 11:51:36;;;;;;;7.75;4.55;;;10.70;66.40;;;;;;5097525;28;20450;-72
2020/12/20 11:54:01;;;;;;;6.63;5.35;;;10.70;66.30;;;;;;5079539;28;20109;-72
2020/12/20 11:56:27;;;;;;;7.03;4.95;;;10.70;65.70;;;;;;5097400;28;20420;-72
2020/12/20 11:58:53;;;;;;;7.38;4.97;;;10.70;64.50;;;;;;5097336;28;20031;-72
2020/12/20 12:01:30;;;;;;;5.30;4.25;;;10.70;64.90;;;;;;5097522;28;20081;-71
2020/12/20 12:03:58;;;;;;;7.32;4.43;;;10.70;65.20;;;;;;5097311;28;20436;-72
2020/12/20 12:06:24;;;;;;;7.75;3.97;;;10.60;66.00;;;;;;5097217;28;20017;-72
2020/12/20 12:08:51;;;;;;;5.93;3.75;;;10.50;66.30;;;;;;5097346;28;20029;-72
2020/12/20 12:11:21;;;;;;;5.38;4.05;;;10.50;64.70;;;;;;5096509;28;20434;-72
2020/12/20 12:13:50;;;;;;;5.03;3.30;;;10.40;64.70;;;;;;5097107;28;20020;-72
2020/12/20 12:16:23;;;;;;;5.90;4.05;;;10.20;66.20;;;;;;5097164;28;20028;-72
2020/12/20 12:18:51;;;;;;;5.93;4.25;;;10.00;67.10;;;;;;5097249;28;20028;-72
2020/12/20 12:21:20;;;;;;;5.78;3.67;;;9.90;65.90;;;;;;5097361;28;20043;-72
2020/12/20 12:23:48;;;;;;;5.80;4.30;;;9.80;66.70;;;;;;5097297;28;20023;-71
2020/12/20 12:26:17;;;;;;;5.80;3.92;;;9.60;67.50;;;;;;5096947;28;20431;-72
2020/12/20 12:28:43;;;;;;;7.82;4.25;;;9.60;68.20;;;;;;5096318;28;20052;-71
2020/12/20 12:31:09;;;;;;;7.85;4.60;;;9.60;69.50;;;;;;5097227;28;20400;-72
2020/12/20 12:33:35;;;;;;;6.53;4.85;;;9.70;68.10;;;;;;5097137;28;20426;-72
2020/12/20 12:36:10;;;;;;;6.15;4.75;;;9.90;69.00;;;;;;5096836;28;20412;-72
2020/12/20 12:38:36;;;;;;;8.63;5.60;;;10.40;68.70;;;;;;5097137;28;20032;-72
2020/12/20 12:41:04;;;;;;;8.00;5.93;;;10.90;65.50;;;;;;5096937;28;20416;-72
2020/12/20 12:43:30;;;;;;;6.25;4.97;;;11.00;64.20;;;;;;5097073;28;20036;-72
2020/12/20 12:45:56;;;;;;;7.47;4.78;;;11.10;65.10;;;;;;5096696;28;20376;-72
2020/12/20 12:48:41;;;;;;;5.95;4.60;;;11.30;63.70;;;;;;5078826;28;20028;-72
2020/12/20 12:51:10;;;;;;;5.57;4.20;;;11.60;62.70;;;;;;5096768;28;20040;-72
2020/12/20 12:53:41;;;;;;;5.78;5.15;;;11.70;63.50;;;;;;5096796;28;20024;-72
2020/12/20 12:56:15;;;;;;;6.57;4.63;;;11.60;63.60;;;;;;5078738;28;20119;-72
2020/12/20 12:58:40;;;;;;;7.10;3.97;;;11.60;63.70;;;;;;5096090;28;20425;-72